Mus, Turkey
Current Conditions -  °F | °C
As of 10:20 AM on Tuesday 21 Oct 2014 (Local Time) from LTCJ Reporting Station
Scattered Clouds Scattered Clouds  
Wind Chill: 64°   Ceiling: Unl
Heat Index: 64°   Visibility: 6mi
Dew Point: 52°   Wind: 3mph
Humidity: 64%   Direction: 230°SW
Pressure: 29.97"   Gusts: NA
Location:  38.74°N, 41.49°E
Report Text: LTCJ 210720Z 23003KT 170V290 9999 FEW040 SCT100 18/11 Q1015
Loading
Personal Weather Stations






























Interactive Weather Map
Tropical Storm Tracking
New forecast layout! Learn more

10-Day Weather Forecast

Advertisements
Track Severe Weather on mobile